sensor_id;sensor_type;location;lat;lon;timestamp;P1;durP1;ratioP1;P2;durP2;ratioP2
16512;SDS011;8369;48.030;11.598;2023-04-06T00:01:00;5.63;;;4.37;;
16512;SDS011;8369;48.030;11.598;2023-04-06T00:03:26;5.70;;;3.93;;
16512;SDS011;8369;48.030;11.598;2023-04-06T00:05:52;5.13;;;4.00;;
16512;SDS011;8369;48.030;11.598;2023-04-06T00:08:18;5.53;;;4.37;;
16512;SDS011;8369;48.030;11.598;2023-04-06T00:10:46;6.23;;;4.43;;
16512;SDS011;8369;48.030;11.598;2023-04-06T00:13:12;7.20;;;4.23;;
16512;SDS011;8369;48.030;11.598;2023-04-06T00:15:38;6.03;;;4.17;;
16512;SDS011;8369;48.030;11.598;2023-04-06T00:18:03;4.80;;;3.77;;
16512;SDS011;8369;48.030;11.598;2023-04-06T00:20:29;6.03;;;4.07;;
16512;SDS011;8369;48.030;11.598;2023-04-06T00:22:55;6.10;;;4.00;;
16512;SDS011;8369;48.030;11.598;2023-04-06T00:25:21;4.90;;;3.73;;
16512;SDS011;8369;48.030;11.598;2023-04-06T00:27:47;4.73;;;4.20;;
16512;SDS011;8369;48.030;11.598;2023-04-06T00:30:12;5.53;;;4.07;;
16512;SDS011;8369;48.030;11.598;2023-04-06T00:32:38;6.23;;;4.23;;
16512;SDS011;8369;48.030;11.598;2023-04-06T00:35:04;4.17;;;3.73;;
16512;SDS011;8369;48.030;11.598;2023-04-06T00:37:31;6.47;;;4.60;;
16512;SDS011;8369;48.030;11.598;2023-04-06T00:39:57;7.33;;;4.30;;
16512;SDS011;8369;48.030;11.598;2023-04-06T00:42:23;6.30;;;4.30;;
16512;SDS011;8369;48.030;11.598;2023-04-06T00:44:52;4.73;;;3.60;;
16512;SDS011;8369;48.030;11.598;2023-04-06T00:47:19;6.40;;;4.17;;
16512;SDS011;8369;48.030;11.598;2023-04-06T00:49:46;6.10;;;4.00;;
16512;SDS011;8369;48.030;11.598;2023-04-06T00:52:13;5.67;;;3.80;;
16512;SDS011;8369;48.030;11.598;2023-04-06T00:54:39;6.20;;;4.00;;
16512;SDS011;8369;48.030;11.598;2023-04-06T00:57:04;6.20;;;4.20;;
16512;SDS011;8369;48.030;11.598;2023-04-06T00:59:31;9.60;;;5.33;;
16512;SDS011;8369;48.030;11.598;2023-04-06T01:01:57;6.30;;;4.50;;
16512;SDS011;8369;48.030;11.598;2023-04-06T01:04:23;6.30;;;4.70;;
16512;SDS011;8369;48.030;11.598;2023-04-06T01:06:49;8.10;;;4.93;;
16512;SDS011;8369;48.030;11.598;2023-04-06T01:09:16;8.53;;;4.43;;
16512;SDS011;8369;48.030;11.598;2023-04-06T01:11:42;8.03;;;5.10;;
16512;SDS011;8369;48.030;11.598;2023-04-06T01:14:08;8.00;;;4.63;;
16512;SDS011;8369;48.030;11.598;2023-04-06T01:16:35;5.60;;;3.97;;
16512;SDS011;8369;48.030;11.598;2023-04-06T01:19:01;7.77;;;4.37;;
16512;SDS011;8369;48.030;11.598;2023-04-06T01:21:37;8.10;;;5.10;;
16512;SDS011;8369;48.030;11.598;2023-04-06T01:24:03;7.03;;;4.70;;
16512;SDS011;8369;48.030;11.598;2023-04-06T01:26:30;5.80;;;4.60;;
16512;SDS011;8369;48.030;11.598;2023-04-06T01:28:57;6.37;;;4.40;;
16512;SDS011;8369;48.030;11.598;2023-04-06T01:31:23;6.30;;;4.40;;
16512;SDS011;8369;48.030;11.598;2023-04-06T01:33:49;7.07;;;4.60;;
16512;SDS011;8369;48.030;11.598;2023-04-06T01:36:16;5.93;;;4.67;;
16512;SDS011;8369;48.030;11.598;2023-04-06T01:38:42;7.23;;;4.63;;
16512;SDS011;8369;48.030;11.598;2023-04-06T01:41:08;6.97;;;4.57;;
16512;SDS011;8369;48.030;11.598;2023-04-06T01:43:34;6.97;;;4.43;;
16512;SDS011;8369;48.030;11.598;2023-04-06T01:46:01;6.47;;;4.00;;
16512;SDS011;8369;48.030;11.598;2023-04-06T01:48:27;8.10;;;5.07;;
16512;SDS011;8369;48.030;11.598;2023-04-06T01:50:53;18.90;;;9.63;;
16512;SDS011;8369;48.030;11.598;2023-04-06T01:53:20;23.00;;;11.63;;
16512;SDS011;8369;48.030;11.598;2023-04-06T01:55:46;24.53;;;13.07;;
16512;SDS011;8369;48.030;11.598;2023-04-06T01:58:14;23.60;;;12.97;;
16512;SDS011;8369;48.030;11.598;2023-04-06T02:00:41;18.80;;;10.60;;
16512;SDS011;8369;48.030;11.598;2023-04-06T02:03:07;15.97;;;9.27;;
16512;SDS011;8369;48.030;11.598;2023-04-06T02:05:33;12.10;;;7.23;;
16512;SDS011;8369;48.030;11.598;2023-04-06T02:08:06;14.00;;;6.00;;
16512;SDS011;8369;48.030;11.598;2023-04-06T02:10:33;9.03;;;5.73;;
16512;SDS011;8369;48.030;11.598;2023-04-06T02:12:59;7.90;;;5.50;;
16512;SDS011;8369;48.030;11.598;2023-04-06T02:15:26;9.60;;;5.30;;
16512;SDS011;8369;48.030;11.598;2023-04-06T02:17:52;7.80;;;5.40;;
16512;SDS011;8369;48.030;11.598;2023-04-06T02:20:18;7.87;;;5.17;;
16512;SDS011;8369;48.030;11.598;2023-04-06T02:22:44;8.53;;;5.10;;
16512;SDS011;8369;48.030;11.598;2023-04-06T02:25:10;6.53;;;5.17;;
16512;SDS011;8369;48.030;11.598;2023-04-06T02:27:36;7.97;;;5.20;;
16512;SDS011;8369;48.030;11.598;2023-04-06T02:30:03;5.57;;;4.43;;
16512;SDS011;8369;48.030;11.598;2023-04-06T02:32:29;7.27;;;4.87;;
16512;SDS011;8369;48.030;11.598;2023-04-06T02:34:55;7.30;;;4.80;;
16512;SDS011;8369;48.030;11.598;2023-04-06T02:37:21;7.70;;;5.20;;
16512;SDS011;8369;48.030;11.598;2023-04-06T02:39:49;8.20;;;4.93;;
16512;SDS011;8369;48.030;11.598;2023-04-06T02:42:15;7.57;;;4.77;;
16512;SDS011;8369;48.030;11.598;2023-04-06T02:44:41;7.00;;;4.73;;
16512;SDS011;8369;48.030;11.598;2023-04-06T02:47:14;8.53;;;4.90;;
16512;SDS011;8369;48.030;11.598;2023-04-06T02:49:40;7.73;;;4.93;;
16512;SDS011;8369;48.030;11.598;2023-04-06T02:52:06;12.93;;;6.13;;
16512;SDS011;8369;48.030;11.598;2023-04-06T02:54:32;10.00;;;6.10;;
16512;SDS011;8369;48.030;11.598;2023-04-06T02:56:58;12.37;;;6.77;;
16512;SDS011;8369;48.030;11.598;2023-04-06T02:59:24;11.00;;;6.80;;
16512;SDS011;8369;48.030;11.598;2023-04-06T03:01:51;11.87;;;6.73;;
16512;SDS011;8369;48.030;11.598;2023-04-06T03:04:17;10.83;;;6.57;;
16512;SDS011;8369;48.030;11.598;2023-04-06T03:06:43;12.93;;;7.53;;
16512;SDS011;8369;48.030;11.598;2023-04-06T03:09:09;11.23;;;6.60;;
16512;SDS011;8369;48.030;11.598;2023-04-06T03:11:35;13.03;;;7.07;;
16512;SDS011;8369;48.030;11.598;2023-04-06T03:14:01;10.47;;;6.37;;
16512;SDS011;8369;48.030;11.598;2023-04-06T03:16:27;11.83;;;6.83;;
16512;SDS011;8369;48.030;11.598;2023-04-06T03:18:53;12.23;;;6.37;;
16512;SDS011;8369;48.030;11.598;2023-04-06T03:21:19;9.93;;;6.47;;
16512;SDS011;8369;48.030;11.598;2023-04-06T03:23:45;9.77;;;6.47;;
16512;SDS011;8369;48.030;11.598;2023-04-06T03:26:11;9.73;;;5.53;;
16512;SDS011;8369;48.030;11.598;2023-04-06T03:28:37;11.77;;;5.60;;
16512;SDS011;8369;48.030;11.598;2023-04-06T03:31:03;7.37;;;5.47;;
16512;SDS011;8369;48.030;11.598;2023-04-06T03:33:29;8.87;;;5.73;;
16512;SDS011;8369;48.030;11.598;2023-04-06T03:35:55;8.63;;;5.20;;
16512;SDS011;8369;48.030;11.598;2023-04-06T03:38:22;10.23;;;5.67;;
16512;SDS011;8369;48.030;11.598;2023-04-06T03:40:47;7.40;;;5.23;;
16512;SDS011;8369;48.030;11.598;2023-04-06T03:43:13;9.37;;;5.60;;
16512;SDS011;8369;48.030;11.598;2023-04-06T03:45:39;9.23;;;5.43;;
16512;SDS011;8369;48.030;11.598;2023-04-06T03:48:05;9.77;;;6.23;;
16512;SDS011;8369;48.030;11.598;2023-04-06T03:50:31;10.20;;;5.63;;
16512;SDS011;8369;48.030;11.598;2023-04-06T03:52:57;8.27;;;5.30;;
16512;SDS011;8369;48.030;11.598;2023-04-06T03:55:23;10.43;;;5.70;;
16512;SDS011;8369;48.030;11.598;2023-04-06T03:57:49;7.37;;;5.57;;
16512;SDS011;8369;48.030;11.598;2023-04-06T04:00:15;8.33;;;6.00;;
16512;SDS011;8369;48.030;11.598;2023-04-06T04:02:41;8.93;;;5.40;;
16512;SDS011;8369;48.030;11.598;2023-04-06T04:05:07;8.73;;;6.27;;
16512;SDS011;8369;48.030;11.598;2023-04-06T04:07:33;12.30;;;6.33;;
16512;SDS011;8369;48.030;11.598;2023-04-06T04:10:00;9.03;;;5.90;;
16512;SDS011;8369;48.030;11.598;2023-04-06T04:12:26;9.13;;;6.03;;
16512;SDS011;8369;48.030;11.598;2023-04-06T04:14:52;11.80;;;6.03;;
16512;SDS011;8369;48.030;11.598;2023-04-06T04:17:17;8.93;;;6.40;;
16512;SDS011;8369;48.030;11.598;2023-04-06T04:19:43;10.13;;;6.30;;
16512;SDS011;8369;48.030;11.598;2023-04-06T04:22:09;10.57;;;6.37;;
16512;SDS011;8369;48.030;11.598;2023-04-06T04:24:35;9.93;;;5.90;;
16512;SDS011;8369;48.030;11.598;2023-04-06T04:27:01;9.57;;;5.80;;
16512;SDS011;8369;48.030;11.598;2023-04-06T04:29:27;9.60;;;5.23;;
16512;SDS011;8369;48.030;11.598;2023-04-06T04:31:53;10.17;;;5.50;;
16512;SDS011;8369;48.030;11.598;2023-04-06T04:34:19;13.23;;;6.20;;
16512;SDS011;8369;48.030;11.598;2023-04-06T04:36:46;9.30;;;5.50;;
16512;SDS011;8369;48.030;11.598;2023-04-06T04:39:11;8.80;;;5.30;;
16512;SDS011;8369;48.030;11.598;2023-04-06T04:41:37;10.80;;;4.90;;
16512;SDS011;8369;48.030;11.598;2023-04-06T04:44:03;9.53;;;5.70;;
16512;SDS011;8369;48.030;11.598;2023-04-06T04:46:29;8.43;;;5.17;;
16512;SDS011;8369;48.030;11.598;2023-04-06T04:48:55;7.90;;;4.73;;
16512;SDS011;8369;48.030;11.598;2023-04-06T04:51:21;10.37;;;5.47;;
16512;SDS011;8369;48.030;11.598;2023-04-06T04:53:47;9.90;;;4.70;;
16512;SDS011;8369;48.030;11.598;2023-04-06T04:56:12;7.57;;;4.60;;
16512;SDS011;8369;48.030;11.598;2023-04-06T04:58:38;10.80;;;4.50;;
16512;SDS011;8369;48.030;11.598;2023-04-06T05:01:04;7.77;;;4.13;;
16512;SDS011;8369;48.030;11.598;2023-04-06T05:03:30;7.10;;;4.37;;
16512;SDS011;8369;48.030;11.598;2023-04-06T05:05:57;7.80;;;4.73;;
16512;SDS011;8369;48.030;11.598;2023-04-06T05:08:23;7.53;;;4.80;;
16512;SDS011;8369;48.030;11.598;2023-04-06T05:10:49;11.27;;;4.30;;
16512;SDS011;8369;48.030;11.598;2023-04-06T05:13:17;8.63;;;4.60;;
16512;SDS011;8369;48.030;11.598;2023-04-06T05:15:43;11.93;;;4.80;;
16512;SDS011;8369;48.030;11.598;2023-04-06T05:18:09;8.50;;;4.40;;
16512;SDS011;8369;48.030;11.598;2023-04-06T05:20:36;17.53;;;4.60;;
16512;SDS011;8369;48.030;11.598;2023-04-06T05:23:03;9.23;;;4.87;;
16512;SDS011;8369;48.030;11.598;2023-04-06T05:25:28;9.53;;;4.90;;
16512;SDS011;8369;48.030;11.598;2023-04-06T05:27:54;10.43;;;4.80;;
16512;SDS011;8369;48.030;11.598;2023-04-06T05:30:20;10.90;;;4.73;;
16512;SDS011;8369;48.030;11.598;2023-04-06T05:32:46;5.77;;;4.07;;
16512;SDS011;8369;48.030;11.598;2023-04-06T05:35:12;10.57;;;4.27;;
16512;SDS011;8369;48.030;11.598;2023-04-06T05:37:38;8.87;;;4.87;;
16512;SDS011;8369;48.030;11.598;2023-04-06T05:40:05;10.37;;;5.50;;
16512;SDS011;8369;48.030;11.598;2023-04-06T05:42:41;11.30;;;4.90;;
16512;SDS011;8369;48.030;11.598;2023-04-06T05:45:08;7.30;;;5.00;;
16512;SDS011;8369;48.030;11.598;2023-04-06T05:47:44;9.50;;;4.43;;
16512;SDS011;8369;48.030;11.598;2023-04-06T05:50:11;6.83;;;4.67;;
16512;SDS011;8369;48.030;11.598;2023-04-06T05:52:37;9.00;;;5.30;;
16512;SDS011;8369;48.030;11.598;2023-04-06T05:55:03;11.10;;;6.60;;
16512;SDS011;8369;48.030;11.598;2023-04-06T05:57:30;14.83;;;8.90;;
16512;SDS011;8369;48.030;11.598;2023-04-06T05:59:55;21.23;;;8.70;;
16512;SDS011;8369;48.030;11.598;2023-04-06T06:02:21;18.00;;;9.47;;
16512;SDS011;8369;48.030;11.598;2023-04-06T06:04:47;13.23;;;8.50;;
16512;SDS011;8369;48.030;11.598;2023-04-06T06:07:16;16.03;;;9.17;;
16512;SDS011;8369;48.030;11.598;2023-04-06T06:09:42;13.40;;;8.07;;
16512;SDS011;8369;48.030;11.598;2023-04-06T06:12:08;13.50;;;8.03;;
16512;SDS011;8369;48.030;11.598;2023-04-06T06:14:33;15.33;;;7.87;;
16512;SDS011;8369;48.030;11.598;2023-04-06T06:17:00;16.97;;;9.20;;
16512;SDS011;8369;48.030;11.598;2023-04-06T06:19:26;13.50;;;7.90;;
16512;SDS011;8369;48.030;11.598;2023-04-06T06:21:52;11.40;;;6.73;;
16512;SDS011;8369;48.030;11.598;2023-04-06T06:24:18;11.63;;;6.23;;
16512;SDS011;8369;48.030;11.598;2023-04-06T06:26:44;10.23;;;5.30;;
16512;SDS011;8369;48.030;11.598;2023-04-06T06:29:10;7.73;;;5.10;;
16512;SDS011;8369;48.030;11.598;2023-04-06T06:31:36;7.67;;;5.50;;
16512;SDS011;8369;48.030;11.598;2023-04-06T06:34:02;8.03;;;4.67;;
16512;SDS011;8369;48.030;11.598;2023-04-06T06:36:28;7.40;;;5.67;;
16512;SDS011;8369;48.030;11.598;2023-04-06T06:38:55;8.57;;;5.23;;
16512;SDS011;8369;48.030;11.598;2023-04-06T06:41:22;9.73;;;5.40;;
16512;SDS011;8369;48.030;11.598;2023-04-06T06:43:48;17.83;;;5.07;;
16512;SDS011;8369;48.030;11.598;2023-04-06T06:46:14;8.53;;;5.60;;
16512;SDS011;8369;48.030;11.598;2023-04-06T06:48:41;21.40;;;5.60;;
16512;SDS011;8369;48.030;11.598;2023-04-06T06:51:07;7.80;;;5.13;;
16512;SDS011;8369;48.030;11.598;2023-04-06T06:53:34;9.90;;;5.13;;
16512;SDS011;8369;48.030;11.598;2023-04-06T06:56:01;10.20;;;6.00;;
16512;SDS011;8369;48.030;11.598;2023-04-06T06:58:27;8.33;;;4.63;;
16512;SDS011;8369;48.030;11.598;2023-04-06T07:00:59;11.17;;;4.63;;
16512;SDS011;8369;48.030;11.598;2023-04-06T07:03:26;6.00;;;4.97;;
16512;SDS011;8369;48.030;11.598;2023-04-06T07:05:53;8.63;;;5.13;;
16512;SDS011;8369;48.030;11.598;2023-04-06T07:08:20;6.63;;;4.07;;
16512;SDS011;8369;48.030;11.598;2023-04-06T07:10:47;6.87;;;4.70;;
16512;SDS011;8369;48.030;11.598;2023-04-06T07:13:13;10.10;;;4.70;;
16512;SDS011;8369;48.030;11.598;2023-04-06T07:15:47;5.70;;;4.43;;
16512;SDS011;8369;48.030;11.598;2023-04-06T07:18:14;7.10;;;4.97;;
16512;SDS011;8369;48.030;11.598;2023-04-06T07:20:41;5.47;;;4.40;;
16512;SDS011;8369;48.030;11.598;2023-04-06T07:23:08;6.80;;;4.80;;
16512;SDS011;8369;48.030;11.598;2023-04-06T07:25:35;5.97;;;4.90;;
16512;SDS011;8369;48.030;11.598;2023-04-06T07:28:02;11.83;;;5.90;;
16512;SDS011;8369;48.030;11.598;2023-04-06T07:30:29;14.67;;;5.77;;
16512;SDS011;8369;48.030;11.598;2023-04-06T07:32:55;8.40;;;5.83;;
16512;SDS011;8369;48.030;11.598;2023-04-06T07:35:23;8.20;;;5.90;;
16512;SDS011;8369;48.030;11.598;2023-04-06T07:37:52;8.60;;;6.13;;
16512;SDS011;8369;48.030;11.598;2023-04-06T07:40:19;9.70;;;5.83;;
16512;SDS011;8369;48.030;11.598;2023-04-06T07:42:45;7.70;;;6.07;;
16512;SDS011;8369;48.030;11.598;2023-04-06T07:45:12;8.50;;;6.13;;
16512;SDS011;8369;48.030;11.598;2023-04-06T07:47:38;10.47;;;6.03;;
16512;SDS011;8369;48.030;11.598;2023-04-06T07:50:05;11.00;;;5.87;;
16512;SDS011;8369;48.030;11.598;2023-04-06T07:52:32;8.77;;;6.07;;
16512;SDS011;8369;48.030;11.598;2023-04-06T07:54:59;7.17;;;5.47;;
16512;SDS011;8369;48.030;11.598;2023-04-06T07:57:25;8.83;;;6.17;;
16512;SDS011;8369;48.030;11.598;2023-04-06T07:59:51;8.37;;;5.77;;
16512;SDS011;8369;48.030;11.598;2023-04-06T08:02:17;8.67;;;5.87;;
16512;SDS011;8369;48.030;11.598;2023-04-06T08:04:44;9.60;;;6.50;;
16512;SDS011;8369;48.030;11.598;2023-04-06T08:07:11;10.63;;;7.10;;
16512;SDS011;8369;48.030;11.598;2023-04-06T08:09:37;8.03;;;6.17;;
16512;SDS011;8369;48.030;11.598;2023-04-06T08:12:03;13.73;;;7.10;;
16512;SDS011;8369;48.030;11.598;2023-04-06T08:14:30;11.70;;;6.47;;
16512;SDS011;8369;48.030;11.598;2023-04-06T08:16:56;9.33;;;6.43;;
16512;SDS011;8369;48.030;11.598;2023-04-06T08:19:23;11.10;;;6.70;;
16512;SDS011;8369;48.030;11.598;2023-04-06T08:21:50;15.73;;;6.90;;
16512;SDS011;8369;48.030;11.598;2023-04-06T08:24:16;10.67;;;6.93;;
16512;SDS011;8369;48.030;11.598;2023-04-06T08:26:43;10.37;;;6.17;;
16512;SDS011;8369;48.030;11.598;2023-04-06T08:29:09;10.67;;;6.77;;
16512;SDS011;8369;48.030;11.598;2023-04-06T08:31:36;9.90;;;6.33;;
16512;SDS011;8369;48.030;11.598;2023-04-06T08:34:04;10.17;;;6.30;;
16512;SDS011;8369;48.030;11.598;2023-04-06T08:36:33;8.00;;;5.87;;
16512;SDS011;8369;48.030;11.598;2023-04-06T08:39:00;8.13;;;5.67;;
16512;SDS011;8369;48.030;11.598;2023-04-06T08:41:26;9.43;;;6.43;;
16512;SDS011;8369;48.030;11.598;2023-04-06T08:44:00;8.57;;;6.10;;
16512;SDS011;8369;48.030;11.598;2023-04-06T08:46:28;9.33;;;6.10;;
16512;SDS011;8369;48.030;11.598;2023-04-06T08:48:56;10.27;;;5.90;;
16512;SDS011;8369;48.030;11.598;2023-04-06T08:51:24;9.43;;;6.47;;
16512;SDS011;8369;48.030;11.598;2023-04-06T08:53:52;9.40;;;5.67;;
16512;SDS011;8369;48.030;11.598;2023-04-06T08:56:22;7.97;;;5.83;;
16512;SDS011;8369;48.030;11.598;2023-04-06T08:58:52;8.57;;;6.03;;
16512;SDS011;8369;48.030;11.598;2023-04-06T09:01:26;9.20;;;6.03;;
16512;SDS011;8369;48.030;11.598;2023-04-06T09:03:55;11.93;;;6.60;;
16512;SDS011;8369;48.030;11.598;2023-04-06T09:06:30;8.07;;;6.00;;
16512;SDS011;8369;48.030;11.598;2023-04-06T09:08:57;10.30;;;5.53;;
16512;SDS011;8369;48.030;11.598;2023-04-06T09:11:23;10.57;;;6.20;;
16512;SDS011;8369;48.030;11.598;2023-04-06T09:13:51;9.20;;;6.20;;
16512;SDS011;8369;48.030;11.598;2023-04-06T09:16:19;9.43;;;6.83;;
16512;SDS011;8369;48.030;11.598;2023-04-06T09:18:46;8.33;;;6.73;;
16512;SDS011;8369;48.030;11.598;2023-04-06T09:21:15;10.50;;;6.50;;
16512;SDS011;8369;48.030;11.598;2023-04-06T09:23:43;9.70;;;6.30;;
16512;SDS011;8369;48.030;11.598;2023-04-06T09:26:11;7.83;;;5.87;;
16512;SDS011;8369;48.030;11.598;2023-04-06T09:28:52;8.23;;;6.30;;
16512;SDS011;8369;48.030;11.598;2023-04-06T09:31:23;10.17;;;6.20;;
16512;SDS011;8369;48.030;11.598;2023-04-06T09:33:53;10.70;;;6.30;;
16512;SDS011;8369;48.030;11.598;2023-04-06T09:36:30;8.17;;;5.87;;
16512;SDS011;8369;48.030;11.598;2023-04-06T09:38:58;8.10;;;6.30;;
16512;SDS011;8369;48.030;11.598;2023-04-06T09:41:31;8.40;;;6.40;;
16512;SDS011;8369;48.030;11.598;2023-04-06T09:44:03;7.97;;;6.07;;
16512;SDS011;8369;48.030;11.598;2023-04-06T09:46:32;9.23;;;6.63;;
16512;SDS011;8369;48.030;11.598;2023-04-06T09:49:06;6.70;;;5.23;;
16512;SDS011;8369;48.030;11.598;2023-04-06T09:51:37;8.87;;;5.77;;
16512;SDS011;8369;48.030;11.598;2023-04-06T09:54:19;7.63;;;5.77;;
16512;SDS011;8369;48.030;11.598;2023-04-06T09:56:47;12.43;;;6.43;;
16512;SDS011;8369;48.030;11.598;2023-04-06T09:59:48;10.50;;;6.20;;
16512;SDS011;8369;48.030;11.598;2023-04-06T10:03:02;11.93;;;6.50;;
16512;SDS011;8369;48.030;11.598;2023-04-06T10:05:29;7.67;;;6.20;;
16512;SDS011;8369;48.030;11.598;2023-04-06T10:08:11;9.73;;;6.13;;
16512;SDS011;8369;48.030;11.598;2023-04-06T10:10:39;7.90;;;6.20;;
16512;SDS011;8369;48.030;11.598;2023-04-06T10:13:07;8.17;;;5.90;;
16512;SDS011;8369;48.030;11.598;2023-04-06T10:15:35;6.47;;;5.40;;
16512;SDS011;8369;48.030;11.598;2023-04-06T10:18:04;8.00;;;6.33;;
16512;SDS011;8369;48.030;11.598;2023-04-06T10:20:43;7.53;;;5.60;;
16512;SDS011;8369;48.030;11.598;2023-04-06T10:23:33;7.53;;;6.33;;
16512;SDS011;8369;48.030;11.598;2023-04-06T10:25:59;8.67;;;6.00;;
16512;SDS011;8369;48.030;11.598;2023-04-06T10:28:30;6.83;;;5.90;;
16512;SDS011;8369;48.030;11.598;2023-04-06T10:31:00;8.83;;;5.93;;
16512;SDS011;8369;48.030;11.598;2023-04-06T10:33:33;7.47;;;5.77;;
16512;SDS011;8369;48.030;11.598;2023-04-06T10:38:39;7.93;;;5.73;;
16512;SDS011;8369;48.030;11.598;2023-04-06T10:41:07;9.43;;;6.50;;
16512;SDS011;8369;48.030;11.598;2023-04-06T10:43:38;8.70;;;6.20;;
16512;SDS011;8369;48.030;11.598;2023-04-06T10:46:06;11.60;;;6.63;;
16512;SDS011;8369;48.030;11.598;2023-04-06T10:48:41;10.00;;;5.80;;
16512;SDS011;8369;48.030;11.598;2023-04-06T10:51:12;8.80;;;6.30;;
16512;SDS011;8369;48.030;11.598;2023-04-06T10:53:43;6.87;;;5.50;;
16512;SDS011;8369;48.030;11.598;2023-04-06T10:56:13;8.07;;;5.73;;
16512;SDS011;8369;48.030;11.598;2023-04-06T10:58:44;11.27;;;6.17;;
16512;SDS011;8369;48.030;11.598;2023-04-06T11:01:12;10.17;;;6.27;;
16512;SDS011;8369;48.030;11.598;2023-04-06T11:03:44;10.50;;;6.00;;
16512;SDS011;8369;48.030;11.598;2023-04-06T11:06:17;9.60;;;6.03;;
16512;SDS011;8369;48.030;11.598;2023-04-06T11:08:54;8.40;;;5.63;;
16512;SDS011;8369;48.030;11.598;2023-04-06T11:11:23;7.13;;;5.83;;
16512;SDS011;8369;48.030;11.598;2023-04-06T11:13:52;7.07;;;6.10;;
16512;SDS011;8369;48.030;11.598;2023-04-06T11:16:21;7.53;;;6.10;;
16512;SDS011;8369;48.030;11.598;2023-04-06T11:18:51;8.17;;;5.73;;
16512;SDS011;8369;48.030;11.598;2023-04-06T11:21:34;6.53;;;5.37;;
16512;SDS011;8369;48.030;11.598;2023-04-06T11:24:08;10.80;;;5.90;;
16512;SDS011;8369;48.030;11.598;2023-04-06T11:26:37;8.07;;;6.57;;
16512;SDS011;8369;48.030;11.598;2023-04-06T11:29:09;6.77;;;5.60;;
16512;SDS011;8369;48.030;11.598;2023-04-06T11:31:39;10.67;;;5.77;;
16512;SDS011;8369;48.030;11.598;2023-04-06T11:34:11;7.23;;;5.20;;
16512;SDS011;8369;48.030;11.598;2023-04-06T11:36:42;7.43;;;5.67;;
16512;SDS011;8369;48.030;11.598;2023-04-06T11:39:11;8.00;;;5.53;;
16512;SDS011;8369;48.030;11.598;2023-04-06T11:41:39;7.63;;;5.23;;
16512;SDS011;8369;48.030;11.598;2023-04-06T11:44:06;8.40;;;5.73;;
16512;SDS011;8369;48.030;11.598;2023-04-06T11:46:36;6.07;;;5.10;;
16512;SDS011;8369;48.030;11.598;2023-04-06T11:49:02;6.73;;;5.73;;
16512;SDS011;8369;48.030;11.598;2023-04-06T11:51:29;7.90;;;5.70;;
16512;SDS011;8369;48.030;11.598;2023-04-06T11:53:56;8.20;;;5.37;;
16512;SDS011;8369;48.030;11.598;2023-04-06T11:56:23;8.77;;;5.53;;
16512;SDS011;8369;48.030;11.598;2023-04-06T11:58:54;6.67;;;5.47;;
16512;SDS011;8369;48.030;11.598;2023-04-06T12:01:21;7.97;;;5.80;;
16512;SDS011;8369;48.030;11.598;2023-04-06T12:03:48;7.13;;;5.60;;
16512;SDS011;8369;48.030;11.598;2023-04-06T12:06:18;7.97;;;5.90;;
16512;SDS011;8369;48.030;11.598;2023-04-06T12:08:47;7.27;;;5.60;;
16512;SDS011;8369;48.030;11.598;2023-04-06T12:11:14;6.97;;;5.33;;
16512;SDS011;8369;48.030;11.598;2023-04-06T12:13:39;7.27;;;5.53;;
16512;SDS011;8369;48.030;11.598;2023-04-06T12:16:05;7.83;;;5.13;;
16512;SDS011;8369;48.030;11.598;2023-04-06T12:18:32;6.63;;;4.93;;
16512;SDS011;8369;48.030;11.598;2023-04-06T12:20:59;8.10;;;5.33;;
16512;SDS011;8369;48.030;11.598;2023-04-06T12:23:26;6.37;;;5.30;;
16512;SDS011;8369;48.030;11.598;2023-04-06T12:25:53;5.17;;;4.43;;
16512;SDS011;8369;48.030;11.598;2023-04-06T12:28:20;5.93;;;4.50;;
16512;SDS011;8369;48.030;11.598;2023-04-06T12:30:48;5.97;;;4.87;;
16512;SDS011;8369;48.030;11.598;2023-04-06T12:33:15;5.53;;;4.90;;
16512;SDS011;8369;48.030;11.598;2023-04-06T12:35:40;7.13;;;4.97;;
16512;SDS011;8369;48.030;11.598;2023-04-06T12:38:07;6.03;;;4.87;;
16512;SDS011;8369;48.030;11.598;2023-04-06T12:40:37;6.43;;;4.53;;
16512;SDS011;8369;48.030;11.598;2023-04-06T12:43:05;7.17;;;4.90;;
16512;SDS011;8369;48.030;11.598;2023-04-06T12:45:32;7.43;;;4.77;;
16512;SDS011;8369;48.030;11.598;2023-04-06T12:47:58;6.33;;;4.83;;
16512;SDS011;8369;48.030;11.598;2023-04-06T12:50:25;5.00;;;4.50;;
16512;SDS011;8369;48.030;11.598;2023-04-06T12:52:52;6.40;;;4.47;;
16512;SDS011;8369;48.030;11.598;2023-04-06T12:55:18;8.60;;;5.37;;
16512;SDS011;8369;48.030;11.598;2023-04-06T12:57:45;6.23;;;4.83;;
16512;SDS011;8369;48.030;11.598;2023-04-06T13:00:14;8.23;;;5.40;;
16512;SDS011;8369;48.030;11.598;2023-04-06T13:02:40;7.73;;;5.57;;
16512;SDS011;8369;48.030;11.598;2023-04-06T13:05:12;10.97;;;5.10;;
16512;SDS011;8369;48.030;11.598;2023-04-06T13:07:43;7.23;;;5.03;;
16512;SDS011;8369;48.030;11.598;2023-04-06T13:10:10;5.73;;;5.13;;
16512;SDS011;8369;48.030;11.598;2023-04-06T13:12:37;5.90;;;4.63;;
16512;SDS011;8369;48.030;11.598;2023-04-06T13:15:05;8.47;;;5.20;;
16512;SDS011;8369;48.030;11.598;2023-04-06T13:17:32;6.77;;;5.40;;
16512;SDS011;8369;48.030;11.598;2023-04-06T13:19:59;7.57;;;5.40;;
16512;SDS011;8369;48.030;11.598;2023-04-06T13:22:26;5.97;;;4.77;;
16512;SDS011;8369;48.030;11.598;2023-04-06T13:24:51;5.43;;;4.70;;
16512;SDS011;8369;48.030;11.598;2023-04-06T13:27:18;5.43;;;4.63;;
16512;SDS011;8369;48.030;11.598;2023-04-06T13:29:45;5.60;;;4.73;;
16512;SDS011;8369;48.030;11.598;2023-04-06T13:32:11;7.43;;;5.17;;
16512;SDS011;8369;48.030;11.598;2023-04-06T13:34:38;9.13;;;4.90;;
16512;SDS011;8369;48.030;11.598;2023-04-06T13:37:05;5.60;;;4.27;;
16512;SDS011;8369;48.030;11.598;2023-04-06T13:39:32;7.40;;;4.93;;
16512;SDS011;8369;48.030;11.598;2023-04-06T13:41:59;6.03;;;4.90;;
16512;SDS011;8369;48.030;11.598;2023-04-06T13:44:27;7.47;;;5.17;;
16512;SDS011;8369;48.030;11.598;2023-04-06T13:46:54;6.87;;;5.03;;
16512;SDS011;8369;48.030;11.598;2023-04-06T13:49:21;7.33;;;5.20;;
16512;SDS011;8369;48.030;11.598;2023-04-06T13:51:48;7.70;;;5.00;;
16512;SDS011;8369;48.030;11.598;2023-04-06T13:54:19;8.60;;;5.57;;
16512;SDS011;8369;48.030;11.598;2023-04-06T13:56:46;6.57;;;5.37;;
16512;SDS011;8369;48.030;11.598;2023-04-06T13:59:15;8.63;;;5.23;;
16512;SDS011;8369;48.030;11.598;2023-04-06T14:01:41;8.27;;;4.90;;
16512;SDS011;8369;48.030;11.598;2023-04-06T14:04:08;5.83;;;5.00;;
16512;SDS011;8369;48.030;11.598;2023-04-06T14:06:35;6.67;;;5.20;;
16512;SDS011;8369;48.030;11.598;2023-04-06T14:09:03;9.27;;;5.60;;
16512;SDS011;8369;48.030;11.598;2023-04-06T14:11:31;8.73;;;5.40;;
16512;SDS011;8369;48.030;11.598;2023-04-06T14:13:59;7.60;;;5.17;;
16512;SDS011;8369;48.030;11.598;2023-04-06T14:16:25;8.13;;;5.13;;
16512;SDS011;8369;48.030;11.598;2023-04-06T14:18:52;7.33;;;5.50;;
16512;SDS011;8369;48.030;11.598;2023-04-06T14:21:20;5.57;;;4.73;;
16512;SDS011;8369;48.030;11.598;2023-04-06T14:23:47;5.73;;;4.87;;
16512;SDS011;8369;48.030;11.598;2023-04-06T14:26:14;7.80;;;5.10;;
16512;SDS011;8369;48.030;11.598;2023-04-06T14:28:41;6.67;;;5.10;;
16512;SDS011;8369;48.030;11.598;2023-04-06T14:31:11;6.77;;;5.17;;
16512;SDS011;8369;48.030;11.598;2023-04-06T14:33:39;6.93;;;4.80;;
16512;SDS011;8369;48.030;11.598;2023-04-06T14:36:06;6.87;;;5.10;;
16512;SDS011;8369;48.030;11.598;2023-04-06T14:38:33;4.80;;;4.27;;
16512;SDS011;8369;48.030;11.598;2023-04-06T14:40:59;5.90;;;4.43;;
16512;SDS011;8369;48.030;11.598;2023-04-06T14:43:27;6.67;;;4.63;;
16512;SDS011;8369;48.030;11.598;2023-04-06T14:45:54;5.57;;;4.17;;
16512;SDS011;8369;48.030;11.598;2023-04-06T14:48:21;4.83;;;4.33;;